Time;durP1;ratioP1;P1;durP2;ratioP2;P2;SDS_P1;SDS_P2;PMS_P1;PMS_P2;Temp;Humidity;BMP_temperature;BMP_pressure;BME280_temperature;BME280_humidity;BME280_pressure;Samples;Min_cycle;Max_cycle;Signal;HPM_P1;HPM_P2
2022/04/21 00:00:13;;;;;;;;;;;;;;;;;;4921330;29;19920;-76
2022/04/21 00:02:38;;;;;;;;;;;;;;;;;;4938544;29;19933;-76
2022/04/21 00:05:04;;;;;;;;;;;;;;;;;;4937050;29;19918;-78
2022/04/21 00:07:29;;;;;;;;;;;;;;;;;;4932871;29;19914;-76
2022/04/21 00:09:55;;;;;;;;;;;;;;;;;;4934125;29;20289;-76
2022/04/21 00:12:20;;;;;;;;;;;;;;;;;;4921040;29;20597;-81
2022/04/21 00:14:45;;;;;;;;;;;;;;;;;;4920113;29;20368;-79
2022/04/21 00:17:10;;;;;;;;;;;;;;;;;;4938296;29;19915;-78
2022/04/21 00:19:36;;;;;;;;;;;;;;;;;;4934298;29;20503;-78
2022/04/21 00:24:45;;;;;;;;;;;;;;;;;;4935690;29;20406;-78
2022/04/21 00:27:11;;;;;;;;;;;;;;;;;;4936325;29;19950;-79
2022/04/21 00:29:36;;;;;;;;;;;;;;;;;;4935615;29;19925;-78
2022/04/21 00:32:02;;;;;;;;;;;;;;;;;;4935226;29;19914;-78
2022/04/21 00:34:27;;;;;;;;;;;;;;;;;;4937554;29;19921;-78
2022/04/21 00:36:55;;;;;;;;;;;;;;;;;;4936695;29;19921;-78
2022/04/21 00:39:20;;;;;;;;;;;;;;;;;;4937261;29;19923;-78
2022/04/21 00:41:45;;;;;;;;;;;;;;;;;;4935864;29;20010;-78
2022/04/21 00:44:10;;;;;;;;;;;;;;;;;;4937026;29;19950;-78
2022/04/21 00:46:38;;;;;;;;;;;;;;;;;;4935434;29;19919;-78
2022/04/21 00:49:04;;;;;;;;;;;;;;;;;;4935536;29;20001;-78
2022/04/21 00:51:29;;;;;;;;;;;;;;;;;;4937171;29;20009;-78
2022/04/21 00:53:55;;;;;;;;;;;;;;;;;;4936919;29;20002;-78
2022/04/21 00:56:22;;;;;;;;;;;;;;;;;;4936550;29;20259;-78
2022/04/21 00:58:47;;;;;;;;;;;;;;;;;;4937594;29;20360;-78
2022/04/21 01:03:57;;;;;;;;;;;;;;;;;;4935710;29;19974;-78
2022/04/21 01:06:22;;;;;;;;;;;;;;;;;;4936876;29;19918;-78
2022/04/21 01:08:48;;;;;;;;;;;;;;;;;;4937315;29;20384;-78
2022/04/21 01:11:13;;;;;;;;;;;;;;;;;;4928722;29;19993;-79
2022/04/21 01:13:38;;;;;;;;;;;;;;;;;;4936304;29;19911;-78
2022/04/21 01:16:03;;;;;;;;;;;;;;;;;;4933569;29;19925;-78
2022/04/21 01:18:29;;;;;;;;;;;;;;;;;;4937787;29;19968;-78
2022/04/21 01:20:54;;;;;;;;;;;;;;;;;;4937128;29;20006;-78
2022/04/21 01:23:19;;;;;;;;;;;;;;;;;;4936227;29;19919;-78
2022/04/21 01:25:44;;;;;;;;;;;;;;;;;;4920477;29;20241;-78
2022/04/21 01:28:10;;;;;;;;;;;;;;;;;;4936419;29;20348;-78
2022/04/21 01:30:35;;;;;;;;;;;;;;;;;;4935906;29;20030;-79
2022/04/21 01:33:00;;;;;;;;;;;;;;;;;;4936539;29;19911;-78
2022/04/21 01:35:25;;;;;;;;;;;;;;;;;;4937216;29;19926;-78
2022/04/21 01:43:18;;;;;;;;;;;;;;;;;;4937078;29;19973;-78
2022/04/21 01:45:44;;;;;;;;;;;;;;;;;;4936142;29;19946;-78
2022/04/21 01:48:09;;;;;;;;;;;;;;;;;;4934429;29;19925;-79
2022/04/21 01:50:37;;;;;;;;;;;;;;;;;;4937046;29;19925;-78
2022/04/21 01:53:02;;;;;;;;;;;;;;;;;;4935399;29;19922;-79
2022/04/21 01:55:30;;;;;;;;;;;;;;;;;;4935922;29;19915;-79
2022/04/21 01:57:55;;;;;;;;;;;;;;;;;;4936995;29;19937;-79
2022/04/21 02:00:20;;;;;;;;;;;;;;;;;;4935360;29;20344;-78
2022/04/21 02:02:46;;;;;;;;;;;;;;;;;;4934726;29;19992;-78
2022/04/21 02:05:11;;;;;;;;;;;;;;;;;;4936383;29;19915;-79
2022/04/21 02:07:39;;;;;;;;;;;;;;;;;;4936019;29;19930;-78
2022/04/21 02:10:05;;;;;;;;;;;;;;;;;;4936356;29;19921;-78
2022/04/21 02:12:31;;;;;;;;;;;;;;;;;;4936269;29;19926;-78
2022/04/21 02:14:56;;;;;;;;;;;;;;;;;;4937074;29;19919;-78
2022/04/21 02:17:23;;;;;;;;;;;;;;;;;;4939455;29;19914;-78
2022/04/21 02:19:49;;;;;;;;;;;;;;;;;;4940553;29;19918;-78
2022/04/21 02:22:14;;;;;;;;;;;;;;;;;;4938958;29;19982;-78
2022/04/21 02:24:40;;;;;;;;;;;;;;;;;;4939055;29;19922;-78
2022/04/21 02:27:05;;;;;;;;;;;;;;;;;;4940093;29;19914;-78
2022/04/21 02:29:30;;;;;;;;;;;;;;;;;;4923198;29;20005;-78
2022/04/21 02:31:55;;;;;;;;;;;;;;;;;;4938802;29;19994;-78
2022/04/21 02:34:21;;;;;;;;;;;;;;;;;;4939318;29;19914;-78
2022/04/21 02:36:46;;;;;;;;;;;;;;;;;;4939646;29;19954;-78
2022/04/21 02:39:13;;;;;;;;;;;;;;;;;;4930835;29;19918;-78
2022/04/21 02:41:39;;;;;;;;;;;;;;;;;;4938326;29;19915;-78
2022/04/21 02:44:04;;;;;;;;;;;;;;;;;;4939392;29;19919;-77
2022/04/21 02:46:30;;;;;;;;;;;;;;;;;;4934356;29;19914;-78
2022/04/21 02:48:58;;;;;;;;;;;;;;;;;;4938856;29;20355;-77
2022/04/21 02:51:23;;;;;;;;;;;;;;;;;;4938305;29;19982;-78
2022/04/21 02:59:16;;;;;;;;;;;;;;;;;;4938919;29;20181;-78
2022/04/21 03:01:41;;;;;;;;;;;;;;;;;;4938690;29;19926;-78
2022/04/21 03:04:06;;;;;;;;;;;;;;;;;;4939266;29;19914;-78
2022/04/21 03:06:31;;;;;;;;;;;;;;;;;;4939451;29;20245;-78
2022/04/21 03:08:57;;;;;;;;;;;;;;;;;;4938856;29;20224;-78
2022/04/21 03:11:22;;;;;;;;;;;;;;;;;;4938491;29;19915;-78
2022/04/21 03:13:47;;;;;;;;;;;;;;;;;;4938979;29;19914;-78
2022/04/21 03:16:12;;;;;;;;;;;;;;;;;;4937653;29;19930;-78
2022/04/21 03:18:37;;;;;;;;;;;;;;;;;;4933917;29;19923;-79
2022/04/21 03:26:31;;;;;;;;;;;;;;;;;;4936260;29;19943;-78
2022/04/21 03:28:56;;;;;;;;;;;;;;;;;;4927503;29;19919;-77
2022/04/21 03:31:23;;;;;;;;;;;;;;;;;;4935165;29;19966;-78
2022/04/21 03:33:50;;;;;;;;;;;;;;;;;;4938964;29;19946;-78
2022/04/21 03:36:15;;;;;;;;;;;;;;;;;;4939285;29;19911;-78
2022/04/21 03:38:43;;;;;;;;;;;;;;;;;;4937839;29;19922;-78
2022/04/21 03:41:08;;;;;;;;;;;;;;;;;;4938959;29;19997;-78
2022/04/21 03:43:33;;;;;;;;;;;;;;;;;;4937837;29;20005;-78
2022/04/21 03:45:59;;;;;;;;;;;;;;;;;;4935870;29;20296;-78
2022/04/21 03:48:24;;;;;;;;;;;;;;;;;;4937861;29;19915;-78
2022/04/21 03:50:51;;;;;;;;;;;;;;;;;;4937906;29;19921;-78
2022/04/21 03:53:19;;;;;;;;;;;;;;;;;;4938680;29;19967;-78
2022/04/21 03:55:44;;;;;;;;;;;;;;;;;;4938530;29;19922;-77
2022/04/21 03:58:09;;;;;;;;;;;;;;;;;;4937897;29;19915;-78
2022/04/21 04:00:37;;;;;;;;;;;;;;;;;;4933373;29;20253;-77
2022/04/21 04:03:02;;;;;;;;;;;;;;;;;;4936986;29;19997;-77
2022/04/21 04:05:27;;;;;;;;;;;;;;;;;;4937832;29;19911;-77
2022/04/21 04:10:52;;;;;;;;;;;;;;;;;;4937792;29;20375;-78
2022/04/21 04:13:23;;;;;;;;;;;;;;;;;;4938733;29;19981;-78
2022/04/21 04:15:49;;;;;;;;;;;;;;;;;;4938169;29;19911;-78
2022/04/21 04:18:18;;;;;;;;;;;;;;;;;;4937233;29;19990;-78
2022/04/21 04:20:43;;;;;;;;;;;;;;;;;;4937390;29;19915;-78
2022/04/21 04:23:08;;;;;;;;;;;;;;;;;;4937239;29;20364;-78
2022/04/21 04:25:35;;;;;;;;;;;;;;;;;;4937107;29;19914;-78
2022/04/21 04:28:00;;;;;;;;;;;;;;;;;;4936824;29;19941;-78
2022/04/21 04:30:26;;;;;;;;;;;;;;;;;;4936962;29;20446;-77
2022/04/21 04:32:51;;;;;;;;;;;;;;;;;;4936879;29;20014;-78
2022/04/21 04:35:16;;;;;;;;;;;;;;;;;;4938302;29;20001;-78
2022/04/21 04:37:44;;;;;;;;;;;;;;;;;;4937501;29;19985;-78
2022/04/21 04:40:11;;;;;;;;;;;;;;;;;;4937319;29;20005;-79
2022/04/21 04:42:37;;;;;;;;;;;;;;;;;;4937439;29;19916;-77
2022/04/21 04:47:48;;;;;;;;;;;;;;;;;;4931256;29;20338;-77
2022/04/21 04:50:13;;;;;;;;;;;;;;;;;;4937245;29;19918;-78
2022/04/21 04:52:39;;;;;;;;;;;;;;;;;;4937011;29;19911;-78
2022/04/21 04:55:07;;;;;;;;;;;;;;;;;;4937156;29;20453;-78
2022/04/21 04:57:33;;;;;;;;;;;;;;;;;;4924780;29;19918;-77
2022/04/21 04:59:58;;;;;;;;;;;;;;;;;;4931928;29;20256;-77
2022/04/21 05:02:23;;;;;;;;;;;;;;;;;;4936951;29;19915;-77
2022/04/21 05:04:48;;;;;;;;;;;;;;;;;;4937029;29;19931;-77
2022/04/21 05:07:17;;;;;;;;;;;;;;;;;;4936409;29;20346;-77
2022/04/21 05:09:42;;;;;;;;;;;;;;;;;;4936230;29;19970;-77
2022/04/21 05:12:08;;;;;;;;;;;;;;;;;;4936709;29;19914;-78
2022/04/21 05:14:33;;;;;;;;;;;;;;;;;;4935280;29;20378;-78
2022/04/21 05:17:01;;;;;;;;;;;;;;;;;;4935229;29;19915;-78
2022/04/21 05:19:29;;;;;;;;;;;;;;;;;;4935972;29;20009;-78
2022/04/21 05:21:54;;;;;;;;;;;;;;;;;;4937493;29;19945;-78
2022/04/21 05:24:19;;;;;;;;;;;;;;;;;;4936708;29;19915;-78
2022/04/21 05:26:48;;;;;;;;;;;;;;;;;;4936510;29;20248;-78
2022/04/21 05:32:03;;;;;;;;;;;;;;;;;;4927607;29;19926;-77
2022/04/21 05:34:29;;;;;;;;;;;;;;;;;;4937975;29;20264;-77
2022/04/21 05:36:54;;;;;;;;;;;;;;;;;;4937045;29;20352;-77
2022/04/21 05:39:20;;;;;;;;;;;;;;;;;;4936595;29;19918;-77
2022/04/21 05:41:45;;;;;;;;;;;;;;;;;;4935826;29;19915;-78
2022/04/21 05:44:13;;;;;;;;;;;;;;;;;;4935045;29;19927;-77
2022/04/21 05:46:39;;;;;;;;;;;;;;;;;;4931090;29;19910;-79
2022/04/21 05:49:04;;;;;;;;;;;;;;;;;;4941829;29;19918;-79
2022/04/21 05:51:29;;;;;;;;;;;;;;;;;;4942080;29;20241;-77
2022/04/21 05:53:56;;;;;;;;;;;;;;;;;;4939231;29;20013;-77
2022/04/21 05:56:24;;;;;;;;;;;;;;;;;;4933184;29;19910;-78
2022/04/21 05:58:49;;;;;;;;;;;;;;;;;;4939575;29;19922;-76
2022/04/21 06:01:14;;;;;;;;;;;;;;;;;;4937056;29;19925;-77
2022/04/21 06:03:41;;;;;;;;;;;;;;;;;;4940440;29;19919;-77
2022/04/21 06:06:06;;;;;;;;;;;;;;;;;;4939633;29;20285;-77
2022/04/21 06:08:34;;;;;;;;;;;;;;;;;;4939552;29;19923;-77
2022/04/21 06:10:59;;;;;;;;;;;;;;;;;;4939694;29;19969;-77
2022/04/21 06:13:25;;;;;;;;;;;;;;;;;;4940717;29;20375;-77
2022/04/21 06:15:50;;;;;;;;;;;;;;;;;;4939273;29;19924;-77
2022/04/21 06:18:15;;;;;;;;;;;;;;;;;;4939288;29;19915;-79
2022/04/21 06:20:41;;;;;;;;;;;;;;;;;;4939944;29;19998;-79
2022/04/21 06:23:06;;;;;;;;;;;;;;;;;;4939585;29;19925;-76
2022/04/21 06:25:31;;;;;;;;;;;;;;;;;;4938578;29;19914;-77
2022/04/21 06:27:57;;;;;;;;;;;;;;;;;;4938675;29;20002;-77
2022/04/21 06:30:23;;;;;;;;;;;;;;;;;;4934767;29;20268;-76
2022/04/21 06:32:48;;;;;;;;;;;;;;;;;;4939081;29;19915;-77
2022/04/21 06:35:31;;;;;;;;;;;;;;;;;;4937777;29;19965;-78
2022/04/21 06:37:56;;;;;;;;;;;;;;;;;;4928385;29;20336;-78
2022/04/21 06:40:22;;;;;;;;;;;;;;;;;;4934386;29;19926;-78
2022/04/21 06:42:47;;;;;;;;;;;;;;;;;;4922454;29;20300;-78
2022/04/21 06:48:02;;;;;;;;;;;;;;;;;;4934173;29;19970;-79
2022/04/21 06:50:33;;;;;;;;;;;;;;;;;;4930078;29;19923;-79
2022/04/21 06:53:02;;;;;;;;;;;;;;;;;;4930927;29;20010;-78
2022/04/21 06:55:30;;;;;;;;;;;;;;;;;;4935915;29;20225;-79
2022/04/21 06:57:55;;;;;;;;;;;;;;;;;;4923891;29;19946;-79
2022/04/21 07:00:25;;;;;;;;;;;;;;;;;;4929884;29;19950;-79
2022/04/21 07:02:53;;;;;;;;;;;;;;;;;;4932462;29;20350;-78
2022/04/21 07:05:19;;;;;;;;;;;;;;;;;;4920248;29;19934;-76
2022/04/21 07:07:47;;;;;;;;;;;;;;;;;;4935869;29;20005;-79
2022/04/21 07:10:13;;;;;;;;;;;;;;;;;;4938700;29;19927;-78
2022/04/21 07:12:38;;;;;;;;;;;;;;;;;;4922187;29;19915;-80
2022/04/21 07:15:04;;;;;;;;;;;;;;;;;;4939306;29;20021;-79
2022/04/21 07:17:29;;;;;;;;;;;;;;;;;;4938060;29;19977;-79
2022/04/21 07:19:55;;;;;;;;;;;;;;;;;;4938437;29;20380;-79
2022/04/21 07:22:26;;;;;;;;;;;;;;;;;;4934547;29;19922;-78
2022/04/21 07:24:52;;;;;;;;;;;;;;;;;;4921621;29;19926;-79
2022/04/21 07:27:20;;;;;;;;;;;;;;;;;;4937828;29;20270;-78
2022/04/21 07:29:45;;;;;;;;;;;;;;;;;;4938021;29;20213;-79
2022/04/21 07:32:11;;;;;;;;;;;;;;;;;;4937752;29;19914;-78
2022/04/21 07:34:36;;;;;;;;;;;;;;;;;;4937098;29;20021;-79
2022/04/21 07:37:01;;;;;;;;;;;;;;;;;;4936172;29;19922;-78
2022/04/21 07:39:26;;;;;;;;;;;;;;;;;;4934639;29;19926;-79
2022/04/21 07:41:52;;;;;;;;;;;;;;;;;;4933760;29;20014;-79
2022/04/21 07:44:17;;;;;;;;;;;;;;;;;;4936383;29;20273;-80
2022/04/21 07:46:42;;;;;;;;;;;;;;;;;;4935774;29;19997;-79
2022/04/21 07:53:12;;;;;;;;;;;;;;;;;;4937992;29;19994;-79
2022/04/21 07:54:38;;;;;;;;;;;;;;;;;;4935498;29;19926;-80
2022/04/21 07:57:03;;;;;;;;;;;;;;;;;;4930376;29;19950;-79
2022/04/21 07:59:31;;;;;;;;;;;;;;;;;;4929598;29;19957;-79
2022/04/21 08:01:56;;;;;;;;;;;;;;;;;;4932053;29;19942;-79
2022/04/21 08:04:22;;;;;;;;;;;;;;;;;;4935680;29;19957;-80
2022/04/21 08:06:49;;;;;;;;;;;;;;;;;;4935025;29;19925;-80
2022/04/21 08:09:14;;;;;;;;;;;;;;;;;;4929396;29;19919;-80
2022/04/21 08:11:42;;;;;;;;;;;;;;;;;;4934213;29;19915;-80
2022/04/21 08:14:08;;;;;;;;;;;;;;;;;;4936800;29;19973;-79
2022/04/21 08:16:33;;;;;;;;;;;;;;;;;;4937791;29;19918;-79
2022/04/21 08:19:03;;;;;;;;;;;;;;;;;;4917778;29;19997;-79
2022/04/21 08:32:50;;;;;;;;;;;;;;;;;;4936262;29;19926;-81
2022/04/21 08:35:16;;;;;;;;;;;;;;;;;;4936529;29;19922;-80
2022/04/21 08:37:42;;;;;;;;;;;;;;;;;;4935104;29;19915;-79
2022/04/21 08:40:10;;;;;;;;;;;;;;;;;;4936415;29;19919;-80
2022/04/21 08:42:40;;;;;;;;;;;;;;;;;;4919521;29;20317;-80
2022/04/21 08:48:16;;;;;;;;;;;;;;;;;;4927199;29;19981;-78
2022/04/21 08:50:41;;;;;;;;;;;;;;;;;;4926814;29;19965;-77
2022/04/21 08:53:17;;;;;;;;;;;;;;;;;;4933191;29;19967;-80
2022/04/21 08:55:44;;;;;;;;;;;;;;;;;;4919046;29;19933;-79
2022/04/21 08:58:09;;;;;;;;;;;;;;;;;;4931395;29;19973;-77
2022/04/21 09:00:38;;;;;;;;;;;;;;;;;;4932331;29;19911;-77
2022/04/21 09:03:04;;;;;;;;;;;;;;;;;;4934276;29;19943;-76
2022/04/21 09:05:34;;;;;;;;;;;;;;;;;;4932069;29;20333;-76
2022/04/21 09:08:00;;;;;;;;;;;;;;;;;;4928263;29;20010;-76
2022/04/21 09:10:34;;;;;;;;;;;;;;;;;;4925508;29;20303;-78
2022/04/21 09:13:00;;;;;;;;;;;;;;;;;;4931768;29;19911;-75
2022/04/21 09:15:29;;;;;;;;;;;;;;;;;;4933102;29;19997;-76
2022/04/21 09:17:59;;;;;;;;;;;;;;;;;;4923385;29;19915;-76
2022/04/21 09:20:33;;;;;;;;;;;;;;;;;;4933322;29;19943;-77
2022/04/21 09:22:59;;;;;;;;;;;;;;;;;;4910078;29;19933;-77
2022/04/21 09:25:30;;;;;;;;;;;;;;;;;;4928407;29;19978;-77
2022/04/21 09:27:55;;;;;;;;;;;;;;;;;;4925655;29;19929;-77
2022/04/21 09:30:27;;;;;;;;;;;;;;;;;;4933478;29;20317;-76
2022/04/21 09:32:56;;;;;;;;;;;;;;;;;;4938472;29;19918;-77
2022/04/21 09:35:22;;;;;;;;;;;;;;;;;;4923932;29;20007;-76
2022/04/21 09:37:50;;;;;;;;;;;;;;;;;;4932596;29;19915;-76
2022/04/21 09:40:17;;;;;;;;;;;;;;;;;;4936435;29;20355;-76
2022/04/21 09:42:44;;;;;;;;;;;;;;;;;;4939948;29;19914;-74
2022/04/21 09:47:56;;;;;;;;;;;;;;;;;;4940774;29;19921;-75
2022/04/21 09:50:21;;;;;;;;;;;;;;;;;;4940043;29;20075;-74
2022/04/21 09:52:47;;;;;;;;;;;;;;;;;;4923542;29;20009;-74
2022/04/21 09:55:30;;;;;;;;;;;;;;;;;;4939103;29;19915;-74
2022/04/21 09:58:08;;;;;;;;;;;;;;;;;;4933992;29;19925;-74
2022/04/21 10:00:34;;;;;;;;;;;;;;;;;;4923761;29;19918;-75
2022/04/21 10:03:03;;;;;;;;;;;;;;;;;;4939879;29;19929;-75
2022/04/21 10:05:34;;;;;;;;;;;;;;;;;;4940579;29;19914;-75
2022/04/21 10:07:59;;;;;;;;;;;;;;;;;;4939424;29;19925;-75
2022/04/21 10:10:31;;;;;;;;;;;;;;;;;;4937717;29;19922;-76
2022/04/21 10:12:56;;;;;;;;;;;;;;;;;;4937174;29;19947;-76
2022/04/21 10:15:24;;;;;;;;;;;;;;;;;;4933226;29;19914;-74
2022/04/21 10:17:52;;;;;;;;;;;;;;;;;;4939543;29;20316;-74
2022/04/21 10:20:20;;;;;;;;;;;;;;;;;;4940441;29;20478;-75
2022/04/21 10:22:47;;;;;;;;;;;;;;;;;;4939611;29;19911;-74
2022/04/21 10:25:12;;;;;;;;;;;;;;;;;;4939483;29;20455;-75
2022/04/21 10:27:37;;;;;;;;;;;;;;;;;;4939465;29;20031;-75
2022/04/21 10:30:23;;;;;;;;;;;;;;;;;;4939912;29;19958;-75
2022/04/21 10:32:50;;;;;;;;;;;;;;;;;;4939818;29;19970;-75
2022/04/21 10:35:24;;;;;;;;;;;;;;;;;;4940075;29;20296;-76
2022/04/21 10:38:08;;;;;;;;;;;;;;;;;;4940060;29;19917;-76
2022/04/21 10:40:33;;;;;;;;;;;;;;;;;;4939975;29;19911;-76
2022/04/21 10:42:58;;;;;;;;;;;;;;;;;;4939910;29;20410;-75
2022/04/21 10:45:32;;;;;;;;;;;;;;;;;;4938957;29;19919;-76
2022/04/21 10:48:12;;;;;;;;;;;;;;;;;;4941068;29;19910;-75
2022/04/21 10:50:38;;;;;;;;;;;;;;;;;;4923304;29;19923;-76
2022/04/21 10:58:34;;;;;;;;;;;;;;;;;;4939739;29;20355;-75
2022/04/21 11:01:18;;;;;;;;;;;;;;;;;;4939013;29;19915;-75
2022/04/21 11:03:46;;;;;;;;;;;;;;;;;;4939569;29;20430;-75
2022/04/21 11:06:12;;;;;;;;;;;;;;;;;;4939499;29;19938;-75
2022/04/21 11:08:38;;;;;;;;;;;;;;;;;;4939495;29;19942;-76
2022/04/21 11:11:03;;;;;;;;;;;;;;;;;;4939324;29;19989;-75
2022/04/21 11:13:58;;;;;;;;;;;;;;;;;;4937311;29;19915;-74
2022/04/21 11:16:41;;;;;;;;;;;;;;;;;;4917876;29;20281;-76
2022/04/21 11:19:25;;;;;;;;;;;;;;;;;;4938703;29;19915;-75
2022/04/21 11:21:52;;;;;;;;;;;;;;;;;;4920267;29;19997;-75
2022/04/21 11:24:17;;;;;;;;;;;;;;;;;;4920040;29;19919;-76
2022/04/21 11:26:43;;;;;;;;;;;;;;;;;;4935188;29;20329;-75
2022/04/21 11:29:09;;;;;;;;;;;;;;;;;;4920171;29;19918;-75
2022/04/21 11:31:34;;;;;;;;;;;;;;;;;;4920179;29;19911;-75
2022/04/21 11:34:04;;;;;;;;;;;;;;;;;;4920899;29;19910;-75
2022/04/21 11:36:33;;;;;;;;;;;;;;;;;;4937278;29;19910;-75
2022/04/21 11:38:58;;;;;;;;;;;;;;;;;;4936211;29;19906;-75
2022/04/21 11:41:23;;;;;;;;;;;;;;;;;;4936138;29;19915;-74
2022/04/21 11:43:49;;;;;;;;;;;;;;;;;;4937700;29;19929;-74
2022/04/21 11:46:16;;;;;;;;;;;;;;;;;;4938951;29;19910;-75
2022/04/21 11:48:44;;;;;;;;;;;;;;;;;;4938081;29;19910;-75
2022/04/21 11:51:10;;;;;;;;;;;;;;;;;;4938834;29;19915;-75
2022/04/21 11:53:42;;;;;;;;;;;;;;;;;;4937781;29;20491;-74
2022/04/21 11:56:08;;;;;;;;;;;;;;;;;;4937806;29;19997;-75
2022/04/21 11:58:38;;;;;;;;;;;;;;;;;;4921801;29;19911;-75
2022/04/21 12:06:41;;;;;;;;;;;;;;;;;;4938508;29;20308;-76
2022/04/21 12:09:07;;;;;;;;;;;;;;;;;;4938531;29;19911;-75
2022/04/21 12:11:37;;;;;;;;;;;;;;;;;;4938401;29;19910;-75
2022/04/21 12:14:03;;;;;;;;;;;;;;;;;;4936830;29;19921;-75
2022/04/21 12:16:43;;;;;;;;;;;;;;;;;;4937279;29;19911;-76
2022/04/21 12:19:09;;;;;;;;;;;;;;;;;;4938108;29;19969;-75
2022/04/21 12:21:37;;;;;;;;;;;;;;;;;;4937399;29;20013;-75
2022/04/21 12:24:09;;;;;;;;;;;;;;;;;;4938141;29;20011;-74
2022/04/21 12:26:45;;;;;;;;;;;;;;;;;;4937935;29;19915;-75
2022/04/21 12:29:10;;;;;;;;;;;;;;;;;;4938042;29;19911;-75
2022/04/21 12:32:02;;;;;;;;;;;;;;;;;;4937857;29;20240;-74
2022/04/21 12:34:29;;;;;;;;;;;;;;;;;;4934363;29;19993;-74
2022/04/21 12:36:57;;;;;;;;;;;;;;;;;;4938192;29;19930;-75
2022/04/21 12:39:22;;;;;;;;;;;;;;;;;;4937794;29;19917;-76
2022/04/21 12:41:48;;;;;;;;;;;;;;;;;;4937028;29;19910;-75
2022/04/21 12:44:13;;;;;;;;;;;;;;;;;;4936198;29;19961;-74
2022/04/21 12:46:41;;;;;;;;;;;;;;;;;;4936729;29;19938;-75
2022/04/21 12:49:07;;;;;;;;;;;;;;;;;;4937588;29;19910;-74
2022/04/21 12:51:33;;;;;;;;;;;;;;;;;;4937690;29;20002;-75
2022/04/21 12:53:58;;;;;;;;;;;;;;;;;;4936620;29;20300;-74
2022/04/21 12:56:36;;;;;;;;;;;;;;;;;;4937484;29;20417;-74
2022/04/21 12:59:04;;;;;;;;;;;;;;;;;;4936225;29;19911;-74
2022/04/21 13:01:29;;;;;;;;;;;;;;;;;;4936848;29;19910;-75
2022/04/21 13:03:54;;;;;;;;;;;;;;;;;;4937429;29;19915;-74
2022/04/21 13:06:30;;;;;;;;;;;;;;;;;;4936411;29;20370;-74
2022/04/21 13:08:58;;;;;;;;;;;;;;;;;;4936477;29;19959;-74
2022/04/21 13:11:26;;;;;;;;;;;;;;;;;;4937360;29;19918;-74
2022/04/21 13:13:52;;;;;;;;;;;;;;;;;;4927600;29;20368;-74
2022/04/21 13:16:20;;;;;;;;;;;;;;;;;;4917587;29;19918;-74
2022/04/21 13:18:45;;;;;;;;;;;;;;;;;;4930694;29;19914;-75
2022/04/21 13:23:59;;;;;;;;;;;;;;;;;;4920654;29;20061;-75
2022/04/21 13:26:28;;;;;;;;;;;;;;;;;;4934880;29;19914;-76
2022/04/21 13:28:54;;;;;;;;;;;;;;;;;;4916886;29;19927;-75
2022/04/21 13:34:06;;;;;;;;;;;;;;;;;;4917979;29;19922;-75
2022/04/21 13:36:31;;;;;;;;;;;;;;;;;;4925082;29;19915;-76
2022/04/21 13:39:02;;;;;;;;;;;;;;;;;;4936512;29;19969;-75
2022/04/21 13:41:27;;;;;;;;;;;;;;;;;;4936770;29;20005;-76
2022/04/21 13:43:55;;;;;;;;;;;;;;;;;;4924504;29;20409;-75
2022/04/21 13:46:20;;;;;;;;;;;;;;;;;;4923226;29;19911;-74
2022/04/21 13:48:45;;;;;;;;;;;;;;;;;;4936904;29;19928;-74
2022/04/21 13:51:10;;;;;;;;;;;;;;;;;;4936271;29;20326;-75
2022/04/21 13:53:36;;;;;;;;;;;;;;;;;;4936750;29;19910;-76
2022/04/21 13:56:06;;;;;;;;;;;;;;;;;;4936314;29;20009;-76
2022/04/21 13:58:31;;;;;;;;;;;;;;;;;;4935475;29;19914;-76
2022/04/21 14:00:56;;;;;;;;;;;;;;;;;;4936285;29;19915;-76
2022/04/21 14:03:23;;;;;;;;;;;;;;;;;;4936629;29;19948;-77
2022/04/21 14:05:48;;;;;;;;;;;;;;;;;;4935558;29;19914;-76
2022/04/21 14:08:13;;;;;;;;;;;;;;;;;;4936732;29;19915;-76
2022/04/21 14:10:38;;;;;;;;;;;;;;;;;;4937847;29;19911;-76
2022/04/21 14:13:04;;;;;;;;;;;;;;;;;;4939598;29;20256;-75
2022/04/21 14:15:29;;;;;;;;;;;;;;;;;;4939783;29;20368;-75
2022/04/21 14:17:57;;;;;;;;;;;;;;;;;;4939195;29;19950;-75
2022/04/21 14:20:22;;;;;;;;;;;;;;;;;;4925049;29;19911;-75
2022/04/21 14:22:47;;;;;;;;;;;;;;;;;;4920880;29;19933;-75
2022/04/21 14:25:12;;;;;;;;;;;;;;;;;;4921179;29;19919;-75
2022/04/21 14:27:37;;;;;;;;;;;;;;;;;;4939713;29;19972;-76
2022/04/21 14:30:06;;;;;;;;;;;;;;;;;;4939828;29;20009;-75
2022/04/21 14:32:32;;;;;;;;;;;;;;;;;;4939861;29;19965;-76
2022/04/21 14:34:57;;;;;;;;;;;;;;;;;;4939657;29;20288;-75
2022/04/21 14:45:34;;;;;;;;;;;;;;;;;;4932763;29;19926;-74
2022/04/21 14:47:59;;;;;;;;;;;;;;;;;;4919739;29;19911;-74
2022/04/21 14:50:24;;;;;;;;;;;;;;;;;;4916874;29;20337;-75
2022/04/21 14:52:49;;;;;;;;;;;;;;;;;;4938910;29;19957;-75
2022/04/21 14:55:14;;;;;;;;;;;;;;;;;;4939129;29;20009;-75
2022/04/21 14:57:40;;;;;;;;;;;;;;;;;;4937480;29;19925;-75
2022/04/21 15:00:05;;;;;;;;;;;;;;;;;;4939633;29;19957;-76
2022/04/21 15:02:31;;;;;;;;;;;;;;;;;;4939298;29;20006;-75
2022/04/21 15:04:56;;;;;;;;;;;;;;;;;;4938660;29;20012;-76
2022/04/21 15:07:23;;;;;;;;;;;;;;;;;;4922058;29;19966;-74
2022/04/21 15:09:49;;;;;;;;;;;;;;;;;;4938446;29;20380;-74
2022/04/21 15:12:14;;;;;;;;;;;;;;;;;;4939550;29;19911;-75
2022/04/21 15:14:39;;;;;;;;;;;;;;;;;;4939353;29;20347;-75
2022/04/21 15:17:06;;;;;;;;;;;;;;;;;;4937877;29;20237;-75
2022/04/21 15:19:32;;;;;;;;;;;;;;;;;;4938417;29;19914;-75
2022/04/21 15:21:57;;;;;;;;;;;;;;;;;;4938390;29;19910;-76
2022/04/21 15:24:22;;;;;;;;;;;;;;;;;;4939214;29;19964;-75
2022/04/21 15:26:48;;;;;;;;;;;;;;;;;;4939105;29;19915;-74
2022/04/21 15:29:13;;;;;;;;;;;;;;;;;;4939265;29;19911;-75
2022/04/21 15:31:40;;;;;;;;;;;;;;;;;;4938264;29;19991;-75
2022/04/21 15:34:08;;;;;;;;;;;;;;;;;;4939093;29;19910;-75
2022/04/21 15:36:33;;;;;;;;;;;;;;;;;;4938032;29;19922;-75
2022/04/21 15:39:01;;;;;;;;;;;;;;;;;;4938974;29;19911;-74
2022/04/21 15:41:26;;;;;;;;;;;;;;;;;;4939071;29;19969;-75
2022/04/21 15:43:51;;;;;;;;;;;;;;;;;;4937842;29;19983;-75
2022/04/21 15:46:19;;;;;;;;;;;;;;;;;;4935283;29;19930;-75
2022/04/21 15:48:44;;;;;;;;;;;;;;;;;;4920086;29;19918;-75
2022/04/21 15:51:09;;;;;;;;;;;;;;;;;;4919118;29;19911;-74
2022/04/21 15:59:05;;;;;;;;;;;;;;;;;;4919902;29;20348;-74
2022/04/21 16:01:32;;;;;;;;;;;;;;;;;;4919160;29;19911;-75
2022/04/21 16:04:01;;;;;;;;;;;;;;;;;;4919603;29;20444;-75
2022/04/21 16:06:29;;;;;;;;;;;;;;;;;;4928079;29;19925;-74
2022/04/21 16:08:55;;;;;;;;;;;;;;;;;;4937645;29;19918;-75
2022/04/21 16:11:20;;;;;;;;;;;;;;;;;;4937601;29;19993;-75
2022/04/21 16:13:49;;;;;;;;;;;;;;;;;;4921667;29;19918;-75
2022/04/21 16:16:14;;;;;;;;;;;;;;;;;;4922049;29;19910;-74
2022/04/21 16:18:40;;;;;;;;;;;;;;;;;;4938321;29;19921;-74
2022/04/21 16:21:05;;;;;;;;;;;;;;;;;;4937341;29;19910;-74
2022/04/21 16:23:30;;;;;;;;;;;;;;;;;;4921193;29;19915;-75
2022/04/21 16:25:58;;;;;;;;;;;;;;;;;;4919070;29;20345;-75
2022/04/21 16:28:23;;;;;;;;;;;;;;;;;;4919067;29;19946;-75
2022/04/21 16:30:48;;;;;;;;;;;;;;;;;;4919554;29;19961;-73
2022/04/21 16:33:13;;;;;;;;;;;;;;;;;;4918166;29;20017;-74
2022/04/21 16:35:41;;;;;;;;;;;;;;;;;;4919235;29;19911;-73
2022/04/21 16:38:06;;;;;;;;;;;;;;;;;;4918986;29;19975;-74
2022/04/21 16:40:31;;;;;;;;;;;;;;;;;;4919075;29;20325;-75
2022/04/21 16:42:56;;;;;;;;;;;;;;;;;;4918361;29;20333;-74
2022/04/21 16:45:22;;;;;;;;;;;;;;;;;;4919108;29;19919;-75
2022/04/21 16:47:47;;;;;;;;;;;;;;;;;;4918048;29;20013;-74
2022/04/21 16:50:12;;;;;;;;;;;;;;;;;;4918917;29;20272;-75
2022/04/21 16:52:37;;;;;;;;;;;;;;;;;;4918284;29;20345;-74
2022/04/21 16:55:06;;;;;;;;;;;;;;;;;;4918820;29;19911;-74
2022/04/21 16:57:35;;;;;;;;;;;;;;;;;;4918852;29;19911;-74
2022/04/21 17:00:01;;;;;;;;;;;;;;;;;;4918806;29;19911;-74
2022/04/21 17:05:13;;;;;;;;;;;;;;;;;;4917961;29;20010;-74
2022/04/21 17:07:39;;;;;;;;;;;;;;;;;;4918860;29;19942;-75
2022/04/21 17:10:04;;;;;;;;;;;;;;;;;;4918537;29;19961;-74
2022/04/21 17:12:29;;;;;;;;;;;;;;;;;;4922079;29;20330;-75
2022/04/21 17:14:54;;;;;;;;;;;;;;;;;;4921186;29;19982;-75
2022/04/21 17:17:20;;;;;;;;;;;;;;;;;;4932134;29;19958;-74
2022/04/21 17:19:45;;;;;;;;;;;;;;;;;;4935253;29;19973;-75
2022/04/21 17:22:11;;;;;;;;;;;;;;;;;;4932146;29;19925;-74
2022/04/21 17:24:36;;;;;;;;;;;;;;;;;;4927675;29;20299;-75
2022/04/21 17:27:02;;;;;;;;;;;;;;;;;;4934607;29;19914;-74
2022/04/21 17:29:27;;;;;;;;;;;;;;;;;;4922050;29;19926;-74
2022/04/21 17:31:54;;;;;;;;;;;;;;;;;;4924485;29;19918;-74
2022/04/21 17:34:20;;;;;;;;;;;;;;;;;;4925326;29;19911;-74
2022/04/21 17:36:47;;;;;;;;;;;;;;;;;;4926889;29;19965;-75
2022/04/21 17:39:12;;;;;;;;;;;;;;;;;;4924543;29;19925;-75
2022/04/21 17:41:40;;;;;;;;;;;;;;;;;;4920042;29;19923;-74
2022/04/21 17:44:05;;;;;;;;;;;;;;;;;;4914978;29;19915;-75
2022/04/21 17:46:30;;;;;;;;;;;;;;;;;;4919722;29;19911;-76
2022/04/21 17:48:56;;;;;;;;;;;;;;;;;;4923418;29;19918;-74
2022/04/21 17:51:21;;;;;;;;;;;;;;;;;;4940530;29;19911;-74
2022/04/21 17:53:46;;;;;;;;;;;;;;;;;;4940584;29;19914;-75
2022/04/21 17:56:11;;;;;;;;;;;;;;;;;;4939878;29;19918;-74
2022/04/21 17:58:37;;;;;;;;;;;;;;;;;;4939707;29;20001;-75
2022/04/21 18:01:04;;;;;;;;;;;;;;;;;;4939982;29;19957;-75
2022/04/21 18:03:31;;;;;;;;;;;;;;;;;;4930662;29;19911;-75
2022/04/21 18:05:57;;;;;;;;;;;;;;;;;;4921751;29;20341;-75
2022/04/21 18:08:22;;;;;;;;;;;;;;;;;;4920620;29;19910;-75